createdAt,value
2022-08-24T00:00:00.000Z,0.0
2022-08-24T00:02:00.000Z,0.0
2022-08-24T00:04:00.000Z,0.0
2022-08-24T00:06:00.000Z,0.0
2022-08-24T00:08:00.000Z,0.0
2022-08-24T00:10:00.000Z,0.0
2022-08-24T00:12:00.000Z,0.0
2022-08-24T00:14:00.000Z,0.0
2022-08-24T00:16:00.000Z,0.0
2022-08-24T00:18:00.000Z,0.0
2022-08-24T00:20:00.000Z,0.0
2022-08-24T00:22:00.000Z,0.0
2022-08-24T00:24:00.000Z,0.0
2022-08-24T00:26:00.000Z,0.0
2022-08-24T00:28:00.000Z,0.0
2022-08-24T00:30:00.000Z,0.0
2022-08-24T00:32:00.000Z,0.0
2022-08-24T00:34:00.000Z,0.0
2022-08-24T00:36:00.000Z,0.0
2022-08-24T00:38:00.000Z,0.0
2022-08-24T00:40:00.000Z,0.0
2022-08-24T00:42:00.000Z,0.0
2022-08-24T00:44:00.000Z,0.0
2022-08-24T00:46:00.000Z,0.0
2022-08-24T00:48:00.000Z,0.0
2022-08-24T00:50:00.000Z,0.0
2022-08-24T00:52:00.000Z,0.0
2022-08-24T00:54:00.000Z,0.0
2022-08-24T00:56:00.000Z,0.0
2022-08-24T00:58:00.000Z,0.0
2022-08-24T01:00:00.000Z,0.0
2022-08-24T01:02:00.000Z,0.0
2022-08-24T01:04:00.000Z,0.0
2022-08-24T01:06:00.000Z,0.0
2022-08-24T01:08:00.000Z,0.0
2022-08-24T01:10:00.000Z,0.0
2022-08-24T01:12:00.000Z,0.0
2022-08-24T01:14:00.000Z,0.0
2022-08-24T01:16:00.000Z,0.0
2022-08-24T01:18:00.000Z,0.0
2022-08-24T01:20:00.000Z,0.0
2022-08-24T01:22:00.000Z,0.0
2022-08-24T01:24:00.000Z,0.0
2022-08-24T01:26:00.000Z,0.0
2022-08-24T01:28:00.000Z,0.0
2022-08-24T01:30:00.000Z,0.0
2022-08-24T01:32:00.000Z,0.0
2022-08-24T01:34:00.000Z,0.0
2022-08-24T01:36:00.000Z,0.0
2022-08-24T01:38:00.000Z,0.0
2022-08-24T01:40:00.000Z,0.0
2022-08-24T01:42:00.000Z,0.0
2022-08-24T01:44:00.000Z,0.0
2022-08-24T01:46:00.000Z,0.0
2022-08-24T01:48:00.000Z,0.0
2022-08-24T01:50:00.000Z,0.0
2022-08-24T01:52:00.000Z,0.0
2022-08-24T01:54:00.000Z,0.0
2022-08-24T01:56:00.000Z,0.0
2022-08-24T01:58:00.000Z,0.0
2022-08-24T02:00:00.000Z,0.0
2022-08-24T02:02:00.000Z,0.0
2022-08-24T02:04:00.000Z,0.0
2022-08-24T02:06:00.000Z,0.0
2022-08-24T02:08:00.000Z,0.0
2022-08-24T02:10:00.000Z,0.0
2022-08-24T02:12:00.000Z,0.0
2022-08-24T02:14:00.000Z,0.0
2022-08-24T02:16:00.000Z,0.0
2022-08-24T02:18:00.000Z,0.0
2022-08-24T02:20:00.000Z,0.0
2022-08-24T02:22:00.000Z,0.0
2022-08-24T02:24:00.000Z,0.0
2022-08-24T02:26:00.000Z,0.0
2022-08-24T02:28:00.000Z,0.0
2022-08-24T02:30:00.000Z,0.0
2022-08-24T02:32:00.000Z,0.0
2022-08-24T02:34:00.000Z,0.0
2022-08-24T02:36:00.000Z,0.0
2022-08-24T02:38:00.000Z,0.0
2022-08-24T02:40:00.000Z,0.0
2022-08-24T02:42:00.000Z,0.0
2022-08-24T02:44:00.000Z,0.0
2022-08-24T02:46:00.000Z,0.0
2022-08-24T02:48:00.000Z,0.0
2022-08-24T02:50:00.000Z,0.0
2022-08-24T02:52:00.000Z,0.0
2022-08-24T02:54:00.000Z,0.0
2022-08-24T02:56:00.000Z,0.0
2022-08-24T02:58:00.000Z,0.0
2022-08-24T03:00:00.000Z,0.0
2022-08-24T03:02:00.000Z,0.0
2022-08-24T03:04:00.000Z,0.0
2022-08-24T03:06:00.000Z,0.0
2022-08-24T03:08:00.000Z,0.0
2022-08-24T03:10:00.000Z,0.0
2022-08-24T03:12:00.000Z,0.0
2022-08-24T03:14:00.000Z,0.0
2022-08-24T03:16:00.000Z,0.0
2022-08-24T03:18:00.000Z,0.0
2022-08-24T03:20:00.000Z,0.0
2022-08-24T03:22:00.000Z,0.0
2022-08-24T03:24:00.000Z,0.0
2022-08-24T03:26:00.000Z,0.0
2022-08-24T03:28:00.000Z,0.0
2022-08-24T03:30:00.000Z,0.0
2022-08-24T03:32:00.000Z,0.0
2022-08-24T03:34:00.000Z,0.0
2022-08-24T03:36:00.000Z,0.0
2022-08-24T03:38:00.000Z,0.0
2022-08-24T03:40:00.000Z,0.0
2022-08-24T03:42:00.000Z,0.0
2022-08-24T03:44:00.000Z,0.0
2022-08-24T03:46:00.000Z,0.0
2022-08-24T03:48:00.000Z,0.0
2022-08-24T03:50:00.000Z,0.0
2022-08-24T03:52:00.000Z,0.0
2022-08-24T03:54:00.000Z,0.0
2022-08-24T03:56:00.000Z,0.0
2022-08-24T03:58:00.000Z,0.55
2022-08-24T04:00:00.000Z,0.79
2022-08-24T04:02:00.000Z,0.86
2022-08-24T04:04:00.000Z,1.18
2022-08-24T04:06:00.000Z,1.42
2022-08-24T04:08:00.000Z,1.81
2022-08-24T04:10:00.000Z,2.13
2022-08-24T04:12:00.000Z,2.6
2022-08-24T04:14:00.000Z,3.16
2022-08-24T04:16:00.000Z,3.63
2022-08-24T04:18:00.000Z,4.26
2022-08-24T04:20:00.000Z,5.05
2022-08-24T04:22:00.000Z,5.68
2022-08-24T04:24:00.000Z,6.55
2022-08-24T04:26:00.000Z,7.58
2022-08-24T04:28:00.000Z,8.05
2022-08-24T04:30:00.000Z,9.24
2022-08-24T04:32:00.000Z,10.27
2022-08-24T04:34:00.000Z,11.45
2022-08-24T04:36:00.000Z,12.71
2022-08-24T04:38:00.000Z,13.98
2022-08-24T04:40:00.000Z,15.4
2022-08-24T04:42:00.000Z,16.66
2022-08-24T04:44:00.000Z,18.01
2022-08-24T04:46:00.000Z,19.27
2022-08-24T04:48:00.000Z,20.61
2022-08-24T04:50:00.000Z,22.04
2022-08-24T04:52:00.000Z,22.75
2022-08-24T04:54:00.000Z,24.41
2022-08-24T04:56:00.000Z,25.75
2022-08-24T04:58:00.000Z,27.17
2022-08-24T05:00:00.000Z,28.67
2022-08-24T05:02:00.000Z,30.02
2022-08-24T05:04:00.000Z,31.44
2022-08-24T05:06:00.000Z,32.46
2022-08-24T05:08:00.000Z,33.57
2022-08-24T05:10:00.000Z,34.68
2022-08-24T05:12:00.000Z,35.94
2022-08-24T05:14:00.000Z,37.05
2022-08-24T05:16:00.000Z,38.31
2022-08-24T05:18:00.000Z,38.86
2022-08-24T05:20:00.000Z,40.05
2022-08-24T05:22:00.000Z,41.39
2022-08-24T05:24:00.000Z,44.47
2022-08-24T05:26:00.000Z,44.16
2022-08-24T05:28:00.000Z,45.5
2022-08-24T05:30:00.000Z,50.0
2022-08-24T05:32:00.000Z,54.43
2022-08-24T05:34:00.000Z,56.17
2022-08-24T05:36:00.000Z,58.38
2022-08-24T05:38:00.000Z,60.91
2022-08-24T05:40:00.000Z,63.67
2022-08-24T05:42:00.000Z,66.91
2022-08-24T05:44:00.000Z,68.49
2022-08-24T05:46:00.000Z,72.12
2022-08-24T05:48:00.000Z,74.41
2022-08-24T05:50:00.000Z,75.6
2022-08-24T05:52:00.000Z,83.34
2022-08-24T05:54:00.000Z,88.87
2022-08-24T05:56:00.000Z,92.51
2022-08-24T05:58:00.000Z,96.3
2022-08-24T06:00:00.000Z,100.01
2022-08-24T06:02:00.000Z,103.88
2022-08-24T06:04:00.000Z,107.67
2022-08-24T06:06:00.000Z,112.34
2022-08-24T06:08:00.000Z,116.21
2022-08-24T06:10:00.000Z,118.81
2022-08-24T06:12:00.000Z,123.47
2022-08-24T06:14:00.000Z,127.19
2022-08-24T06:16:00.000Z,130.43
2022-08-24T06:18:00.000Z,135.88
2022-08-24T06:20:00.000Z,139.91
2022-08-24T06:22:00.000Z,144.73
2022-08-24T06:24:00.000Z,149.54
2022-08-24T06:26:00.000Z,155.0
2022-08-24T06:28:00.000Z,159.26
2022-08-24T06:30:00.000Z,164.16
2022-08-24T06:32:00.000Z,166.21
2022-08-24T06:34:00.000Z,169.85
2022-08-24T06:36:00.000Z,174.59
2022-08-24T06:38:00.000Z,179.72
2022-08-24T06:40:00.000Z,184.94
2022-08-24T06:42:00.000Z,191.81
2022-08-24T06:44:00.000Z,197.97
2022-08-24T06:46:00.000Z,204.21
2022-08-24T06:48:00.000Z,209.35
2022-08-24T06:50:00.000Z,215.91
2022-08-24T06:52:00.000Z,219.22
2022-08-24T06:54:00.000Z,228.23
2022-08-24T06:56:00.000Z,232.1
2022-08-24T06:58:00.000Z,234.79
2022-08-24T07:00:00.000Z,239.84
2022-08-24T07:02:00.000Z,245.22
2022-08-24T07:04:00.000Z,250.51
2022-08-24T07:06:00.000Z,257.3
2022-08-24T07:08:00.000Z,263.94
2022-08-24T07:10:00.000Z,269.47
2022-08-24T07:12:00.000Z,275.55
2022-08-24T07:14:00.000Z,283.29
2022-08-24T07:16:00.000Z,287.8
2022-08-24T07:18:00.000Z,290.09
2022-08-24T07:20:00.000Z,295.78
2022-08-24T07:22:00.000Z,297.12
2022-08-24T07:24:00.000Z,305.1
2022-08-24T07:26:00.000Z,309.44
2022-08-24T07:28:00.000Z,316.87
2022-08-24T07:30:00.000Z,323.58
2022-08-24T07:32:00.000Z,330.22
2022-08-24T07:34:00.000Z,330.77
2022-08-24T07:36:00.000Z,335.12
2022-08-24T07:38:00.000Z,338.67
2022-08-24T07:40:00.000Z,340.65
2022-08-24T07:42:00.000Z,349.5
2022-08-24T07:44:00.000Z,350.21
2022-08-24T07:46:00.000Z,354.47
2022-08-24T07:50:00.000Z,361.51
2022-08-24T07:52:00.000Z,369.96
2022-08-24T07:54:00.000Z,373.83
2022-08-24T07:56:00.000Z,381.33
2022-08-24T07:58:00.000Z,389.08
2022-08-24T08:00:00.000Z,397.69
2022-08-24T08:02:00.000Z,403.53
2022-08-24T08:04:00.000Z,409.93
2022-08-24T08:06:00.000Z,414.12
2022-08-24T08:08:00.000Z,417.28
2022-08-24T08:10:00.000Z,424.55
2022-08-24T08:12:00.000Z,428.5
2022-08-24T08:14:00.000Z,429.92
2022-08-24T08:16:00.000Z,435.45
2022-08-24T08:18:00.000Z,445.72
2022-08-24T08:20:00.000Z,434.9
2022-08-24T08:22:00.000Z,442.8
2022-08-24T08:24:00.000Z,449.36
2022-08-24T08:26:00.000Z,458.44
2022-08-24T08:28:00.000Z,471.16
2022-08-24T08:30:00.000Z,478.98
2022-08-24T08:32:00.000Z,484.91
2022-08-24T08:34:00.000Z,487.43
2022-08-24T08:36:00.000Z,480.72
2022-08-24T08:38:00.000Z,489.41
2022-08-24T08:40:00.000Z,491.94
2022-08-24T08:42:00.000Z,496.6
2022-08-24T08:44:00.000Z,502.44
2022-08-24T08:46:00.000Z,507.42
2022-08-24T08:48:00.000Z,508.53
2022-08-24T08:50:00.000Z,520.46
2022-08-24T08:52:00.000Z,519.75
2022-08-24T08:54:00.000Z,522.98
2022-08-24T08:56:00.000Z,525.75
2022-08-24T08:58:00.000Z,529.3
2022-08-24T09:00:00.000Z,532.23
2022-08-24T09:02:00.000Z,531.91
2022-08-24T09:04:00.000Z,536.57
2022-08-24T09:06:00.000Z,535.31
2022-08-24T09:08:00.000Z,540.76
2022-08-24T09:10:00.000Z,550.71
2022-08-24T09:12:00.000Z,556.88
2022-08-24T09:14:00.000Z,557.59
2022-08-24T09:16:00.000Z,555.3
2022-08-24T09:18:00.000Z,556.17
2022-08-24T09:20:00.000Z,552.37
2022-08-24T09:22:00.000Z,555.14
2022-08-24T09:24:00.000Z,565.01
2022-08-24T09:26:00.000Z,569.52
2022-08-24T09:28:00.000Z,578.52
2022-08-24T09:30:00.000Z,583.97
2022-08-24T09:32:00.000Z,590.14
2022-08-24T09:34:00.000Z,592.58
2022-08-24T09:36:00.000Z,596.14
2022-08-24T09:38:00.000Z,600.64
2022-08-24T09:40:00.000Z,608.7
2022-08-24T09:42:00.000Z,608.31
2022-08-24T09:44:00.000Z,608.78
2022-08-24T09:46:00.000Z,608.86
2022-08-24T09:48:00.000Z,601.75
2022-08-24T09:50:00.000Z,609.65
2022-08-24T09:52:00.000Z,610.28
2022-08-24T09:54:00.000Z,613.84
2022-08-24T09:56:00.000Z,603.25
2022-08-24T09:58:00.000Z,594.56
2022-08-24T10:00:00.000Z,603.72
2022-08-24T10:02:00.000Z,613.28
2022-08-24T10:04:00.000Z,615.42
2022-08-24T10:06:00.000Z,614.07
2022-08-24T10:08:00.000Z,611.78
2022-08-24T10:10:00.000Z,619.6
2022-08-24T10:12:00.000Z,622.53
2022-08-24T10:14:00.000Z,624.82
2022-08-24T10:16:00.000Z,627.74
2022-08-24T10:18:00.000Z,627.82
2022-08-24T10:20:00.000Z,628.77
2022-08-24T10:22:00.000Z,638.01
2022-08-24T10:24:00.000Z,638.64
2022-08-24T10:26:00.000Z,638.8
2022-08-24T10:28:00.000Z,647.57
2022-08-24T10:30:00.000Z,652.94
2022-08-24T10:32:00.000Z,654.84
2022-08-24T10:34:00.000Z,655.86
2022-08-24T10:36:00.000Z,660.53
2022-08-24T10:38:00.000Z,629.64
2022-08-24T10:40:00.000Z,663.76
2022-08-24T10:42:00.000Z,620.0
2022-08-24T10:44:00.000Z,622.05
2022-08-24T10:46:00.000Z,624.26
2022-08-24T10:48:00.000Z,651.36
2022-08-24T10:50:00.000Z,634.22
2022-08-24T10:52:00.000Z,655.71
2022-08-24T10:54:00.000Z,663.45
2022-08-24T10:56:00.000Z,665.27
2022-08-24T10:58:00.000Z,666.77
2022-08-24T11:00:00.000Z,678.93
2022-08-24T11:02:00.000Z,677.35
2022-08-24T11:04:00.000Z,681.54
2022-08-24T11:06:00.000Z,674.75
2022-08-24T11:08:00.000Z,673.32
2022-08-24T11:10:00.000Z,672.14
2022-08-24T11:12:00.000Z,670.88
2022-08-24T11:14:00.000Z,674.59
2022-08-24T11:16:00.000Z,678.3
2022-08-24T11:18:00.000Z,682.01
2022-08-24T11:20:00.000Z,677.2
2022-08-24T11:22:00.000Z,675.06
2022-08-24T11:24:00.000Z,674.9
2022-08-24T11:26:00.000Z,671.98
2022-08-24T11:28:00.000Z,636.11
2022-08-24T11:30:00.000Z,673.88
2022-08-24T11:32:00.000Z,673.32
2022-08-24T11:34:00.000Z,669.22
2022-08-24T11:36:00.000Z,669.53
2022-08-24T11:38:00.000Z,671.9
2022-08-24T11:40:00.000Z,676.56
2022-08-24T11:42:00.000Z,676.33
2022-08-24T11:44:00.000Z,677.43
2022-08-24T11:46:00.000Z,675.54
2022-08-24T11:48:00.000Z,676.17
2022-08-24T11:50:00.000Z,676.64
2022-08-24T11:52:00.000Z,677.27
2022-08-24T11:54:00.000Z,674.27
2022-08-24T11:56:00.000Z,672.77
2022-08-24T11:58:00.000Z,671.98
2022-08-24T12:00:00.000Z,665.34
2022-08-24T12:02:00.000Z,662.42
2022-08-24T12:04:00.000Z,660.37
2022-08-24T12:06:00.000Z,653.89
2022-08-24T12:08:00.000Z,648.99
2022-08-24T12:10:00.000Z,648.44
2022-08-24T12:12:00.000Z,641.09
2022-08-24T12:14:00.000Z,646.86
2022-08-24T12:16:00.000Z,656.26
2022-08-24T12:18:00.000Z,654.84
2022-08-24T12:20:00.000Z,656.26
2022-08-24T12:22:00.000Z,654.05
2022-08-24T12:24:00.000Z,655.07
2022-08-24T12:26:00.000Z,650.81
2022-08-24T12:28:00.000Z,646.23
2022-08-24T12:30:00.000Z,639.67
2022-08-24T12:32:00.000Z,641.57
2022-08-24T12:34:00.000Z,643.86
2022-08-24T12:36:00.000Z,639.2
2022-08-24T12:38:00.000Z,635.96
2022-08-24T12:40:00.000Z,634.53
2022-08-24T12:42:00.000Z,636.43
2022-08-24T12:44:00.000Z,633.82
2022-08-24T12:46:00.000Z,632.01
2022-08-24T12:48:00.000Z,632.01
2022-08-24T12:50:00.000Z,630.35
2022-08-24T12:52:00.000Z,623.95
2022-08-24T12:54:00.000Z,622.05
2022-08-24T12:56:00.000Z,621.34
2022-08-24T12:58:00.000Z,617.47
2022-08-24T13:00:00.000Z,615.65
2022-08-24T13:02:00.000Z,613.2
2022-08-24T13:04:00.000Z,610.28
2022-08-24T13:06:00.000Z,607.91
2022-08-24T13:08:00.000Z,607.04
2022-08-24T13:10:00.000Z,602.14
2022-08-24T13:12:00.000Z,600.64
2022-08-24T13:14:00.000Z,599.14
2022-08-24T13:16:00.000Z,600.41
2022-08-24T13:18:00.000Z,597.64
2022-08-24T13:20:00.000Z,594.32
2022-08-24T13:22:00.000Z,591.4
2022-08-24T13:24:00.000Z,586.66
2022-08-24T13:26:00.000Z,580.5
2022-08-24T13:28:00.000Z,576.55
2022-08-24T13:30:00.000Z,569.99
2022-08-24T13:32:00.000Z,567.46
2022-08-24T13:34:00.000Z,566.59
2022-08-24T13:36:00.000Z,556.96
2022-08-24T13:38:00.000Z,553.16
2022-08-24T13:40:00.000Z,549.37
2022-08-24T13:42:00.000Z,549.84
2022-08-24T13:44:00.000Z,544.47
2022-08-24T13:46:00.000Z,538.15
2022-08-24T13:48:00.000Z,532.23
2022-08-24T13:50:00.000Z,527.49
2022-08-24T13:52:00.000Z,524.8
2022-08-24T13:54:00.000Z,521.64
2022-08-24T13:56:00.000Z,517.06
2022-08-24T13:58:00.000Z,511.29
2022-08-24T14:00:00.000Z,507.34
2022-08-24T14:02:00.000Z,505.68
2022-08-24T14:04:00.000Z,502.44
2022-08-24T14:06:00.000Z,498.73
2022-08-24T14:08:00.000Z,493.12
2022-08-24T14:10:00.000Z,485.77
2022-08-24T14:12:00.000Z,482.3
2022-08-24T14:14:00.000Z,477.24
2022-08-24T14:16:00.000Z,473.53
2022-08-24T14:18:00.000Z,467.84
2022-08-24T14:20:00.000Z,461.44
2022-08-24T14:22:00.000Z,456.54
2022-08-24T14:24:00.000Z,454.81
2022-08-24T14:26:00.000Z,451.96
2022-08-24T14:28:00.000Z,449.75
2022-08-24T14:30:00.000Z,444.3
2022-08-24T14:32:00.000Z,440.19
2022-08-24T14:34:00.000Z,434.5
2022-08-24T14:36:00.000Z,430.32
2022-08-24T14:38:00.000Z,425.18
2022-08-24T14:40:00.000Z,419.02
2022-08-24T14:42:00.000Z,414.04
2022-08-24T14:44:00.000Z,408.2
2022-08-24T14:46:00.000Z,405.11
2022-08-24T14:48:00.000Z,403.53
2022-08-24T14:50:00.000Z,396.58
2022-08-24T14:52:00.000Z,393.74
2022-08-24T14:54:00.000Z,387.65
2022-08-24T14:56:00.000Z,381.49
2022-08-24T14:58:00.000Z,376.67
2022-08-24T15:00:00.000Z,372.33
2022-08-24T15:02:00.000Z,364.9
2022-08-24T15:04:00.000Z,360.79
2022-08-24T15:06:00.000Z,353.53
2022-08-24T15:08:00.000Z,346.73
2022-08-24T15:10:00.000Z,342.15
2022-08-24T15:12:00.000Z,337.41
2022-08-24T15:14:00.000Z,332.43
2022-08-24T15:16:00.000Z,329.04
2022-08-24T15:18:00.000Z,325.8
2022-08-24T15:20:00.000Z,319.79
2022-08-24T15:22:00.000Z,314.26
2022-08-24T15:24:00.000Z,309.36
2022-08-24T15:26:00.000Z,303.68
2022-08-24T15:28:00.000Z,296.09
2022-08-24T15:30:00.000Z,290.4
2022-08-24T15:32:00.000Z,285.59
2022-08-24T15:34:00.000Z,279.74
2022-08-24T15:36:00.000Z,275.63
2022-08-24T15:38:00.000Z,270.57
2022-08-24T15:40:00.000Z,264.97
2022-08-24T15:42:00.000Z,259.28
2022-08-24T15:44:00.000Z,257.46
2022-08-24T15:46:00.000Z,250.98
2022-08-24T15:48:00.000Z,245.22
2022-08-24T15:50:00.000Z,240.95
2022-08-24T15:52:00.000Z,235.1
2022-08-24T15:54:00.000Z,230.44
2022-08-24T15:56:00.000Z,223.89
2022-08-24T15:58:00.000Z,218.67
2022-08-24T16:00:00.000Z,211.4
2022-08-24T16:02:00.000Z,206.5
2022-08-24T16:04:00.000Z,202.48
2022-08-24T16:06:00.000Z,197.74
2022-08-24T16:08:00.000Z,195.29
2022-08-24T16:10:00.000Z,189.99
2022-08-24T16:12:00.000Z,183.99
2022-08-24T16:14:00.000Z,178.3
2022-08-24T16:16:00.000Z,172.22
2022-08-24T16:18:00.000Z,167.08
2022-08-24T16:20:00.000Z,162.82
2022-08-24T16:22:00.000Z,158.63
2022-08-24T16:24:00.000Z,152.94
2022-08-24T16:26:00.000Z,147.96
2022-08-24T16:28:00.000Z,142.28
2022-08-24T16:30:00.000Z,137.38
2022-08-24T16:32:00.000Z,135.64
2022-08-24T16:34:00.000Z,131.77
2022-08-24T16:36:00.000Z,127.82
2022-08-24T16:38:00.000Z,123.4
2022-08-24T16:40:00.000Z,118.81
2022-08-24T16:42:00.000Z,114.31
2022-08-24T16:44:00.000Z,109.33
2022-08-24T16:46:00.000Z,104.2
2022-08-24T16:48:00.000Z,77.65
2022-08-24T16:50:00.000Z,55.14
2022-08-24T16:52:00.000Z,53.87
2022-08-24T16:54:00.000Z,52.06
2022-08-24T16:56:00.000Z,51.82
2022-08-24T16:58:00.000Z,50.63
2022-08-24T17:00:00.000Z,50.08
2022-08-24T17:02:00.000Z,49.13
2022-08-24T17:04:00.000Z,48.19
2022-08-24T17:06:00.000Z,47.32
2022-08-24T17:08:00.000Z,47.08
2022-08-24T17:10:00.000Z,53.72
2022-08-24T17:12:00.000Z,52.53
2022-08-24T17:14:00.000Z,44.31
2022-08-24T17:16:00.000Z,44.71
2022-08-24T17:18:00.000Z,41.79
2022-08-24T17:20:00.000Z,41.55
2022-08-24T17:22:00.000Z,39.97
2022-08-24T17:24:00.000Z,38.55
2022-08-24T17:26:00.000Z,37.28
2022-08-24T17:28:00.000Z,35.94
2022-08-24T17:30:00.000Z,34.91
2022-08-24T17:32:00.000Z,33.65
2022-08-24T17:34:00.000Z,32.62
2022-08-24T17:36:00.000Z,31.44
2022-08-24T17:38:00.000Z,30.41
2022-08-24T17:40:00.000Z,29.07
2022-08-24T17:42:00.000Z,27.72
2022-08-24T17:44:00.000Z,26.54
2022-08-24T17:46:00.000Z,25.2
2022-08-24T17:48:00.000Z,24.56
2022-08-24T17:50:00.000Z,23.22
2022-08-24T17:52:00.000Z,21.8
2022-08-24T17:54:00.000Z,20.54
2022-08-24T17:56:00.000Z,19.43
2022-08-24T17:58:00.000Z,18.01
2022-08-24T18:00:00.000Z,16.74
2022-08-24T18:02:00.000Z,15.56
2022-08-24T18:04:00.000Z,14.22
2022-08-24T18:06:00.000Z,13.03
2022-08-24T18:08:00.000Z,11.77
2022-08-24T18:10:00.000Z,10.58
2022-08-24T18:12:00.000Z,9.95
2022-08-24T18:14:00.000Z,8.61
2022-08-24T18:16:00.000Z,7.26
2022-08-24T18:18:00.000Z,6.16
2022-08-24T18:20:00.000Z,5.45
2022-08-24T18:22:00.000Z,4.74
2022-08-24T18:24:00.000Z,4.1
2022-08-24T18:26:00.000Z,3.47
2022-08-24T18:28:00.000Z,2.92
2022-08-24T18:30:00.000Z,2.44
2022-08-24T18:32:00.000Z,2.05
2022-08-24T18:34:00.000Z,1.65
2022-08-24T18:36:00.000Z,1.42
2022-08-24T18:38:00.000Z,1.34
2022-08-24T18:40:00.000Z,1.1
2022-08-24T18:42:00.000Z,0.79
2022-08-24T18:44:00.000Z,0.55
2022-08-24T18:46:00.000Z,0.47
2022-08-24T18:48:00.000Z,0.31
2022-08-24T18:50:00.000Z,0.0
2022-08-24T18:52:00.000Z,0.0
2022-08-24T18:54:00.000Z,0.0
2022-08-24T18:56:00.000Z,0.0
2022-08-24T18:58:00.000Z,0.0
2022-08-24T19:00:00.000Z,0.0
2022-08-24T19:02:00.000Z,0.0
2022-08-24T19:04:00.000Z,0.0
2022-08-24T19:06:00.000Z,0.0
2022-08-24T19:08:00.000Z,0.0
2022-08-24T19:10:00.000Z,0.0
2022-08-24T19:12:00.000Z,0.0
2022-08-24T19:14:00.000Z,0.0
2022-08-24T19:16:00.000Z,0.0
2022-08-24T19:18:00.000Z,0.0
2022-08-24T19:20:00.000Z,0.0
2022-08-24T19:22:00.000Z,0.0
2022-08-24T19:24:00.000Z,0.0
2022-08-24T19:26:00.000Z,0.0
2022-08-24T19:28:00.000Z,0.0
2022-08-24T19:30:00.000Z,0.0
2022-08-24T19:32:00.000Z,0.0
2022-08-24T19:34:00.000Z,0.0
2022-08-24T19:36:00.000Z,0.0
2022-08-24T19:38:00.000Z,0.0
2022-08-24T19:40:00.000Z,0.0
2022-08-24T19:42:00.000Z,0.0
2022-08-24T19:44:00.000Z,0.0
2022-08-24T19:46:00.000Z,0.0
2022-08-24T19:48:00.000Z,0.0
2022-08-24T19:50:00.000Z,0.0
2022-08-24T19:52:00.000Z,0.0
2022-08-24T19:54:00.000Z,0.0
2022-08-24T19:56:00.000Z,0.0
2022-08-24T19:58:00.000Z,0.0
2022-08-24T20:00:00.000Z,0.0
2022-08-24T20:02:00.000Z,0.0
2022-08-24T20:04:00.000Z,0.0
2022-08-24T20:06:00.000Z,0.0
2022-08-24T20:08:00.000Z,0.0
2022-08-24T20:10:00.000Z,0.0
2022-08-24T20:12:00.000Z,0.0
2022-08-24T20:14:00.000Z,0.0
2022-08-24T20:16:00.000Z,0.0
2022-08-24T20:18:00.000Z,0.0
2022-08-24T20:20:00.000Z,0.0
2022-08-24T20:22:00.000Z,0.0
2022-08-24T20:24:00.000Z,0.0
2022-08-24T20:26:00.000Z,0.0
2022-08-24T20:28:00.000Z,0.0
2022-08-24T20:30:00.000Z,0.0
2022-08-24T20:32:00.000Z,0.0
2022-08-24T20:34:00.000Z,0.0
2022-08-24T20:36:00.000Z,0.0
2022-08-24T20:38:00.000Z,0.0
2022-08-24T20:40:00.000Z,0.0
2022-08-24T20:42:00.000Z,0.0
2022-08-24T20:44:00.000Z,0.0
2022-08-24T20:46:00.000Z,0.0
2022-08-24T20:48:00.000Z,0.0
2022-08-24T20:50:00.000Z,0.0
2022-08-24T20:52:00.000Z,0.0
2022-08-24T20:54:00.000Z,0.0
2022-08-24T20:56:00.000Z,0.0
2022-08-24T20:58:00.000Z,0.0
2022-08-24T21:00:00.000Z,0.0
2022-08-24T21:02:00.000Z,0.0
2022-08-24T21:04:00.000Z,0.0
2022-08-24T21:06:00.000Z,0.0
2022-08-24T21:08:00.000Z,0.0
2022-08-24T21:10:00.000Z,0.0
2022-08-24T21:12:00.000Z,0.0
2022-08-24T21:14:00.000Z,0.0
2022-08-24T21:16:00.000Z,0.0
2022-08-24T21:18:00.000Z,0.0
2022-08-24T21:20:00.000Z,0.0
2022-08-24T21:22:00.000Z,0.0
2022-08-24T21:24:00.000Z,0.0
2022-08-24T21:26:00.000Z,0.0
2022-08-24T21:28:00.000Z,0.0
2022-08-24T21:30:00.000Z,0.0
2022-08-24T21:32:00.000Z,0.0
2022-08-24T21:34:00.000Z,0.0
2022-08-24T21:36:00.000Z,0.0
2022-08-24T21:38:00.000Z,0.0
2022-08-24T21:40:00.000Z,0.0
2022-08-24T21:42:00.000Z,0.0
2022-08-24T21:44:00.000Z,0.0
2022-08-24T21:46:00.000Z,0.0
2022-08-24T21:48:00.000Z,0.0
2022-08-24T21:50:00.000Z,0.0
2022-08-24T21:52:00.000Z,0.0
2022-08-24T21:54:00.000Z,0.0
2022-08-24T21:56:00.000Z,0.0
2022-08-24T21:58:00.000Z,0.0
2022-08-24T22:00:00.000Z,0.0
2022-08-24T22:02:00.000Z,0.0
2022-08-24T22:04:00.000Z,0.0
2022-08-24T22:06:00.000Z,0.0
2022-08-24T22:08:00.000Z,0.0
2022-08-24T22:10:00.000Z,0.0
2022-08-24T22:12:00.000Z,0.0
2022-08-24T22:14:00.000Z,0.0
2022-08-24T22:16:00.000Z,0.0
2022-08-24T22:18:00.000Z,0.0
2022-08-24T22:20:00.000Z,0.0
2022-08-24T22:22:00.000Z,0.0
2022-08-24T22:24:00.000Z,0.0
2022-08-24T22:26:00.000Z,0.0
2022-08-24T22:28:00.000Z,0.0
2022-08-24T22:30:00.000Z,0.0
2022-08-24T22:32:00.000Z,0.0
2022-08-24T22:34:00.000Z,0.0
2022-08-24T22:36:00.000Z,0.0
2022-08-24T22:38:00.000Z,0.0
2022-08-24T22:40:00.000Z,0.0
2022-08-24T22:42:00.000Z,0.0
2022-08-24T22:44:00.000Z,0.0
2022-08-24T22:46:00.000Z,0.0
2022-08-24T22:48:00.000Z,0.0
2022-08-24T22:50:00.000Z,0.0
2022-08-24T22:52:00.000Z,0.0
2022-08-24T22:54:00.000Z,0.0
2022-08-24T22:56:00.000Z,0.0
2022-08-24T22:58:00.000Z,0.0
2022-08-24T23:00:00.000Z,0.0
2022-08-24T23:02:00.000Z,0.0
2022-08-24T23:04:00.000Z,0.0
2022-08-24T23:06:00.000Z,0.0
2022-08-24T23:08:00.000Z,0.0
2022-08-24T23:10:00.000Z,0.0
2022-08-24T23:12:00.000Z,0.0
2022-08-24T23:14:00.000Z,0.0
2022-08-24T23:16:00.000Z,0.0
2022-08-24T23:18:00.000Z,0.0
2022-08-24T23:20:00.000Z,0.0
2022-08-24T23:22:00.000Z,0.0
2022-08-24T23:24:00.000Z,0.0
2022-08-24T23:30:00.000Z,0.0
2022-08-24T23:34:00.000Z,0.0
2022-08-24T23:36:00.000Z,0.0
2022-08-24T23:38:00.000Z,0.0
2022-08-24T23:40:00.000Z,0.0
2022-08-24T23:42:00.000Z,0.0
2022-08-24T23:44:00.000Z,0.0
2022-08-24T23:46:00.000Z,0.0
2022-08-24T23:48:00.000Z,0.0
2022-08-24T23:50:00.000Z,0.0
2022-08-24T23:52:00.000Z,0.0
2022-08-24T23:54:00.000Z,0.0
2022-08-24T23:56:00.000Z,0.0
2022-08-24T23:58:00.000Z,0.0
